Time;durP1;ratioP1;P1;durP2;ratioP2;P2;SDS_P1;SDS_P2;PMS_P1;PMS_P2;Temp;Humidity;BMP_temperature;BMP_pressure;BME280_temperature;BME280_humidity;BME280_pressure;Samples;Min_cycle;Max_cycle;Signal;HPM_P1;HPM_P2
2023/03/22 00:00:51;;;;;;;11.82;6.28;;;7.60;99.90;;;;;;5012280;28;20033;-79
2023/03/22 00:03:17;;;;;;;11.68;6.63;;;7.50;99.90;;;;;;5010126;28;20044;-79
2023/03/22 00:05:44;;;;;;;7.47;5.93;;;7.50;99.90;;;;;;4996523;28;20034;-80
2023/03/22 00:08:12;;;;;;;6.97;5.53;;;7.50;99.90;;;;;;5023924;28;20049;-80
2023/03/22 00:10:39;;;;;;;8.55;5.85;;;7.50;99.90;;;;;;5012081;28;20029;-79
2023/03/22 00:13:08;;;;;;;9.63;6.00;;;7.40;99.90;;;;;;5010869;28;20358;-79
2023/03/22 00:15:35;;;;;;;9.32;6.15;;;7.40;99.90;;;;;;5017174;28;20017;-80
2023/03/22 00:18:04;;;;;;;11.20;5.53;;;7.40;99.90;;;;;;5008059;28;20076;-79
2023/03/22 00:20:32;;;;;;;11.65;6.22;;;7.40;99.90;;;;;;5013423;28;20485;-82
2023/03/22 00:22:59;;;;;;;10.82;6.70;;;7.40;99.90;;;;;;4999584;28;20444;-82
2023/03/22 00:25:25;;;;;;;9.68;5.85;;;7.40;99.90;;;;;;5024334;28;20091;-80
2023/03/22 00:27:51;;;;;;;12.02;6.75;;;7.30;99.90;;;;;;4991603;28;20401;-80
2023/03/22 00:30:17;;;;;;;9.38;5.97;;;7.40;99.90;;;;;;4995792;28;20041;-81
2023/03/22 00:32:43;;;;;;;8.00;5.70;;;7.30;99.90;;;;;;4997307;28;20060;-79
2023/03/22 00:35:10;;;;;;;12.38;5.68;;;7.30;99.90;;;;;;5008174;28;20501;-79
2023/03/22 00:37:37;;;;;;;10.60;5.78;;;7.30;99.90;;;;;;5009930;28;20065;-80
2023/03/22 00:40:07;;;;;;;9.80;6.75;;;7.20;99.90;;;;;;4999379;28;20154;-79
2023/03/22 00:42:38;;;;;;;8.32;6.28;;;7.20;99.90;;;;;;5003531;28;20057;-80
2023/03/22 00:45:07;;;;;;;11.35;6.60;;;7.10;99.90;;;;;;5010037;28;20018;-80
2023/03/22 00:47:33;;;;;;;8.82;6.05;;;7.00;99.90;;;;;;4991326;28;20465;-80
2023/03/22 00:49:59;;;;;;;10.02;5.75;;;7.00;99.90;;;;;;5023113;28;20049;-80
2023/03/22 00:52:25;;;;;;;10.23;6.40;;;7.00;99.90;;;;;;5010077;28;20517;-80
2023/03/22 00:54:51;;;;;;;10.88;6.35;;;7.00;99.90;;;;;;5009504;28;20075;-81
2023/03/22 00:57:18;;;;;;;9.18;6.05;;;7.00;99.90;;;;;;5010255;28;20048;-80
2023/03/22 00:59:44;;;;;;;10.07;6.63;;;6.90;99.90;;;;;;5009265;28;20034;-80
2023/03/22 01:02:13;;;;;;;7.60;5.57;;;6.90;99.90;;;;;;5006072;28;20141;-81
2023/03/22 01:04:45;;;;;;;12.18;6.55;;;6.90;99.90;;;;;;5001513;28;20054;-81
2023/03/22 01:07:17;;;;;;;12.63;6.68;;;6.90;99.90;;;;;;5001164;28;20029;-80
2023/03/22 01:09:44;;;;;;;11.20;6.45;;;6.90;99.90;;;;;;4993703;28;20041;-80
2023/03/22 01:12:14;;;;;;;10.25;6.15;;;6.80;99.90;;;;;;5017467;28;20048;-82
2023/03/22 11:18:32;;;;;;;;;;;14.90;99.90;;;;;;5112367;27;20323;-78
2023/03/22 11:21:10;;;;;;;4.28;2.45;;;14.90;99.90;;;;;;5104270;28;19977;-76
2023/03/22 11:23:39;;;;;;;2.72;1.45;;;15.10;99.90;;;;;;5091066;28;20041;-78
2023/03/22 11:26:11;;;;;;;4.07;1.65;;;15.30;99.90;;;;;;5085231;28;20540;-78
2023/03/22 11:28:48;;;;;;;3.80;1.60;;;15.40;99.90;;;;;;5082317;28;20373;-80
2023/03/22 11:31:16;;;;;;;2.40;1.50;;;15.50;99.90;;;;;;5068817;28;20495;-79
2023/03/22 11:33:56;;;;;;;1.83;1.00;;;15.50;99.90;;;;;;5083273;28;20024;-78
2023/03/22 11:36:22;;;;;;;3.05;1.35;;;15.60;99.90;;;;;;5087422;28;20041;-78
2023/03/22 11:38:59;;;;;;;2.17;1.05;;;15.60;99.90;;;;;;5085628;28;21835;-79
2023/03/22 11:41:44;;;;;;;2.30;1.08;;;15.70;99.90;;;;;;5101258;28;20028;-79
2023/03/22 11:44:16;;;;;;;4.10;1.45;;;15.70;99.90;;;;;;5084442;28;20040;-80
2023/03/22 11:47:10;;;;;;;1.88;1.20;;;15.70;99.90;;;;;;5081297;28;20032;-80
2023/03/22 11:49:56;;;;;;;2.15;1.10;;;15.70;99.90;;;;;;5084537;28;20048;-79
2023/03/22 11:52:25;;;;;;;2.95;1.40;;;16.00;99.90;;;;;;5077052;28;20065;-80
2023/03/22 11:54:53;;;;;;;3.92;1.20;;;16.10;99.90;;;;;;5085952;28;20087;-79
2023/03/22 11:57:23;;;;;;;1.85;1.00;;;16.40;98.00;;;;;;5089817;28;20028;-79
2023/03/22 11:59:57;;;;;;;2.72;0.90;;;16.70;99.10;;;;;;5085193;28;20055;-79
2023/03/22 12:02:34;;;;;;;3.38;1.20;;;16.90;94.00;;;;;;5092996;28;20082;-80
2023/03/22 12:05:08;;;;;;;1.40;1.08;;;17.10;93.40;;;;;;5103521;28;20373;-80
2023/03/22 12:07:36;;;;;;;1.40;0.98;;;17.30;93.50;;;;;;5097517;28;20092;-80
2023/03/22 12:10:31;;;;;;;3.42;1.10;;;17.40;93.90;;;;;;5096067;28;20055;-79
2023/03/22 12:13:03;;;;;;;2.10;1.15;;;17.40;91.50;;;;;;5078749;28;20032;-79
2023/03/22 12:15:33;;;;;;;2.47;0.98;;;17.40;92.60;;;;;;5079582;28;20055;-79
2023/03/22 12:18:18;;;;;;;1.10;1.00;;;17.40;91.40;;;;;;5066897;28;20044;-83
2023/03/22 12:20:53;;;;;;;1.63;0.90;;;17.40;92.10;;;;;;5083637;28;20025;-79
2023/03/22 12:23:21;;;;;;;1.45;1.10;;;17.30;90.20;;;;;;5088327;28;20468;-79
2023/03/22 12:26:14;;;;;;;1.60;1.00;;;17.20;91.50;;;;;;5059762;28;20066;-80
2023/03/22 12:29:19;;;;;;;3.53;1.00;;;17.10;91.10;;;;;;5074957;28;20481;-80
2023/03/22 12:32:24;;;;;;;2.63;1.05;;;17.00;92.10;;;;;;5051887;28;20036;-77
2023/03/22 12:34:51;;;;;;;2.50;1.30;;;16.80;92.40;;;;;;5064780;28;20064;-79
2023/03/22 12:37:21;;;;;;;2.58;1.42;;;16.70;92.10;;;;;;5070344;28;20033;-78
2023/03/22 12:39:54;;;;;;;3.28;0.90;;;16.70;92.90;;;;;;5065329;28;20562;-77
2023/03/22 12:42:26;;;;;;;1.35;0.82;;;16.70;93.00;;;;;;5065788;28;20490;-75
2023/03/22 12:44:58;;;;;;;3.30;0.95;;;16.70;93.90;;;;;;5063606;28;20116;-78
2023/03/22 12:47:37;;;;;;;2.10;1.20;;;16.70;92.80;;;;;;5063078;28;20157;-79
2023/03/22 12:50:20;;;;;;;2.55;1.10;;;16.60;94.30;;;;;;5051271;28;20423;-79
2023/03/22 12:52:53;;;;;;;2.63;1.10;;;16.60;93.00;;;;;;5061673;28;20040;-78
2023/03/22 12:55:30;;;;;;;2.65;1.50;;;16.70;92.30;;;;;;5062015;28;20035;-80
2023/03/22 12:57:56;;;;;;;4.20;1.50;;;16.80;92.20;;;;;;5076099;28;20058;-78
2023/03/22 13:00:46;;;;;;;4.53;1.25;;;16.80;91.60;;;;;;5069284;28;20048;-78
2023/03/22 13:03:16;;;;;;;3.60;1.45;;;16.70;91.10;;;;;;5041632;28;20166;-81
2023/03/22 13:05:44;;;;;;;5.15;2.40;;;16.80;93.20;;;;;;5069541;28;20376;-77
2023/03/22 13:08:10;;;;;;;1.63;1.10;;;16.90;93.60;;;;;;5068572;28;20044;-78
2023/03/22 13:10:40;;;;;;;2.50;1.30;;;17.00;92.50;;;;;;5064733;28;20031;-77
2023/03/22 13:13:06;;;;;;;3.38;1.40;;;17.00;91.80;;;;;;5065793;28;20037;-79
2023/03/22 13:15:34;;;;;;;4.18;1.23;;;17.00;92.20;;;;;;5065186;28;20029;-79
2023/03/22 13:18:00;;;;;;;1.50;0.90;;;17.00;92.50;;;;;;5052383;28;20040;-78
2023/03/22 13:20:29;;;;;;;4.85;1.38;;;17.00;92.00;;;;;;5081446;28;20051;-81
2023/03/22 13:22:55;;;;;;;3.63;1.75;;;17.00;91.50;;;;;;5080109;28;20092;-81
2023/03/22 13:25:33;;;;;;;1.90;1.30;;;16.90;92.90;;;;;;5082091;28;20033;-82
2023/03/22 13:28:26;;;;;;;1.25;0.80;;;16.90;91.40;;;;;;5066394;28;20092;-81
2023/03/22 13:30:54;;;;;;;2.40;0.82;;;16.70;91.20;;;;;;5063839;28;20110;-78
2023/03/22 13:33:27;;;;;;;2.90;1.20;;;16.60;91.80;;;;;;5067045;28;20028;-77
2023/03/22 13:35:57;;;;;;;4.18;1.23;;;16.50;92.70;;;;;;5069796;28;20024;-77
2023/03/22 13:38:33;;;;;;;3.03;0.82;;;16.40;91.80;;;;;;5066848;28;20040;-77
2023/03/22 13:41:14;;;;;;;1.92;0.90;;;16.30;91.50;;;;;;5066237;28;20109;-77
2023/03/22 13:43:57;;;;;;;0.85;0.80;;;16.20;92.60;;;;;;5067632;28;20024;-78
2023/03/22 13:46:27;;;;;;;1.88;1.05;;;16.20;93.20;;;;;;5064660;28;20067;-77
2023/03/22 13:49:19;;;;;;;5.57;1.20;;;16.20;93.10;;;;;;5075827;28;20025;-79
2023/03/22 13:51:45;;;;;;;3.92;1.10;;;16.10;91.20;;;;;;5067619;28;20084;-78
2023/03/22 13:54:15;;;;;;;1.75;1.00;;;16.10;92.60;;;;;;5066249;28;20120;-78
2023/03/22 13:56:40;;;;;;;1.70;0.80;;;16.10;93.20;;;;;;5062329;28;20705;-76
2023/03/22 13:59:26;;;;;;;1.15;0.80;;;16.10;92.60;;;;;;5063258;28;20078;-79
2023/03/22 14:02:10;;;;;;;3.03;1.00;;;16.10;92.30;;;;;;5063807;28;20017;-76
2023/03/22 14:04:54;;;;;;;0.93;0.75;;;16.00;91.40;;;;;;5062068;28;20050;-75
2023/03/22 14:07:39;;;;;;;1.63;0.93;;;16.00;90.50;;;;;;5061847;28;20125;-79
2023/03/22 14:10:36;;;;;;;3.15;0.88;;;16.00;92.80;;;;;;5062952;28;20024;-77
2023/03/22 14:13:26;;;;;;;1.50;0.90;;;15.90;92.50;;;;;;5077235;28;20024;-77
2023/03/22 14:16:07;;;;;;;5.35;0.70;;;16.00;92.70;;;;;;5067319;28;20032;-76
2023/03/22 14:18:35;;;;;;;3.13;1.30;;;16.10;92.40;;;;;;5061544;28;20040;-76
2023/03/22 14:21:08;;;;;;;1.35;1.25;;;16.10;91.40;;;;;;5063368;28;20081;-78
2023/03/22 14:23:38;;;;;;;1.20;0.82;;;16.20;90.90;;;;;;5065527;28;20033;-77
2023/03/22 14:26:10;;;;;;;2.90;1.10;;;16.20;90.40;;;;;;5059330;28;20025;-75
2023/03/22 14:28:41;;;;;;;2.10;0.90;;;16.10;90.40;;;;;;5064765;28;20032;-76
2023/03/22 14:31:24;;;;;;;2.03;0.77;;;15.90;90.50;;;;;;5064173;28;20040;-76
2023/03/22 14:34:36;;;;;;;;;;;15.80;90.90;;;;;;5123913;27;20109;-78
2023/03/22 14:37:07;;;;;;;1.20;0.47;;;15.70;91.40;;;;;;5103169;28;19962;-77
2023/03/22 14:39:49;;;;;;;4.22;0.63;;;15.70;92.00;;;;;;5102368;28;20114;-77
2023/03/22 14:42:21;;;;;;;1.55;0.75;;;15.70;91.90;;;;;;5102667;28;20443;-79
2023/03/22 14:44:56;;;;;;;1.70;0.73;;;15.70;91.80;;;;;;5098895;28;20382;-78
2023/03/22 14:47:32;;;;;;;1.40;0.68;;;15.70;90.50;;;;;;5100695;28;20016;-80
2023/03/22 14:50:02;;;;;;;3.15;1.10;;;15.70;91.50;;;;;;5110062;28;20024;-78
2023/03/22 14:52:32;;;;;;;1.30;0.90;;;15.70;90.50;;;;;;5104353;28;20519;-75
2023/03/22 14:55:02;;;;;;;1.80;0.68;;;15.60;91.70;;;;;;5087333;28;20031;-77
2023/03/22 14:57:31;;;;;;;1.33;0.90;;;15.60;92.80;;;;;;5105613;28;20530;-80
2023/03/22 15:00:00;;;;;;;5.03;0.88;;;15.50;90.90;;;;;;5106529;28;20024;-79
2023/03/22 15:02:41;;;;;;;1.13;0.80;;;15.50;90.10;;;;;;5107326;28;20550;-80
2023/03/22 15:05:12;;;;;;;0.80;0.50;;;15.50;91.70;;;;;;5104113;28;20028;-80
2023/03/22 15:07:53;;;;;;;1.65;0.90;;;15.30;91.90;;;;;;5106902;28;20495;-77
2023/03/22 15:10:23;;;;;;;1.92;0.68;;;15.30;92.60;;;;;;5104917;28;20077;-81
2023/03/22 15:12:51;;;;;;;0.88;0.60;;;15.20;91.10;;;;;;5103753;28;20092;-78
2023/03/22 15:15:28;;;;;;;0.52;0.52;;;15.20;92.10;;;;;;5105551;28;20038;-80
2023/03/22 15:17:56;;;;;;;0.50;0.47;;;15.10;91.60;;;;;;5114682;28;20020;-78
2023/03/22 15:20:26;;;;;;;1.83;0.60;;;15.10;92.20;;;;;;5107486;28;20184;-79
2023/03/22 15:22:55;;;;;;;1.67;0.93;;;15.00;92.30;;;;;;5111865;28;20320;-81
2023/03/22 15:25:31;;;;;;;1.15;0.60;;;15.00;91.90;;;;;;5113259;28;20032;-78
2023/03/22 15:28:01;;;;;;;1.65;0.70;;;15.00;93.60;;;;;;5113158;28;20023;-81
2023/03/22 15:30:27;;;;;;;0.60;0.50;;;14.90;92.50;;;;;;5094893;28;20036;-82
2023/03/22 15:33:04;;;;;;;1.60;0.60;;;14.90;92.40;;;;;;5111495;28;20126;-82
2023/03/22 15:35:30;;;;;;;1.05;0.50;;;14.90;92.90;;;;;;5111479;28;20061;-80
2023/03/22 15:37:57;;;;;;;1.45;0.70;;;14.90;92.80;;;;;;5112265;28;20054;-81
2023/03/22 15:40:39;;;;;;;1.17;0.60;;;14.90;92.00;;;;;;5110967;28;20036;-79
2023/03/22 15:43:19;;;;;;;1.92;0.55;;;14.80;92.90;;;;;;5112619;28;20038;-80
2023/03/22 15:46:08;;;;;;;0.68;0.57;;;14.80;92.60;;;;;;5089943;28;20042;-80
2023/03/22 15:48:44;;;;;;;0.95;0.40;;;14.80;92.20;;;;;;5088488;28;20488;-78
2023/03/22 15:51:14;;;;;;;1.08;0.57;;;14.80;92.00;;;;;;5091899;28;20032;-77
2023/03/22 15:53:40;;;;;;;1.83;0.60;;;14.70;91.90;;;;;;5091899;28;20032;-79
2023/03/22 15:56:25;;;;;;;0.70;0.60;;;14.70;92.80;;;;;;5094342;28;20044;-79
2023/03/22 15:58:55;;;;;;;1.63;0.50;;;14.60;92.60;;;;;;5092000;28;20016;-79
2023/03/22 16:01:21;;;;;;;0.65;0.45;;;14.60;92.10;;;;;;5093103;28;20055;-80
2023/03/22 16:03:55;;;;;;;1.27;0.70;;;14.50;92.40;;;;;;5093315;28;20066;-77
2023/03/22 16:06:23;;;;;;;0.82;0.40;;;14.60;92.60;;;;;;5088975;28;20030;-78
2023/03/22 16:08:49;;;;;;;1.88;0.60;;;14.50;92.50;;;;;;5102055;28;20016;-80
2023/03/22 16:11:17;;;;;;;5.18;0.90;;;14.50;92.60;;;;;;5089606;28;20710;-82
2023/03/22 16:13:43;;;;;;;3.53;0.80;;;14.50;93.60;;;;;;5091365;28;20023;-79
2023/03/22 16:16:13;;;;;;;3.42;1.15;;;14.50;93.50;;;;;;5086886;28;20103;-82
2023/03/22 16:18:39;;;;;;;1.27;0.90;;;14.40;93.90;;;;;;5097396;28;20024;-82
2023/03/22 16:21:05;;;;;;;2.47;1.00;;;14.40;93.80;;;;;;5093421;28;20027;-79
2023/03/22 16:23:30;;;;;;;1.33;0.70;;;14.30;93.80;;;;;;5088850;28;20036;-79
2023/03/22 16:25:56;;;;;;;2.65;0.75;;;14.30;93.40;;;;;;5091059;28;20120;-78
2023/03/22 16:28:22;;;;;;;1.13;0.85;;;14.30;93.80;;;;;;5086933;28;20036;-77
2023/03/22 16:30:47;;;;;;;1.92;0.70;;;14.20;92.70;;;;;;5069400;28;20028;-79
2023/03/22 16:33:15;;;;;;;2.20;0.65;;;14.20;93.30;;;;;;5082749;28;20023;-78
2023/03/22 16:35:42;;;;;;;1.20;0.50;;;14.10;93.30;;;;;;5085416;28;20032;-79
2023/03/22 16:38:14;;;;;;;1.17;0.82;;;14.10;93.70;;;;;;5086781;28;20031;-79
2023/03/22 16:40:46;;;;;;;1.45;0.60;;;14.10;93.90;;;;;;5095308;28;20020;-78
2023/03/22 16:43:12;;;;;;;0.60;0.60;;;14.00;93.90;;;;;;5098273;28;20137;-79
2023/03/22 16:45:38;;;;;;;1.30;0.63;;;14.00;93.90;;;;;;5086056;28;20043;-79
2023/03/22 16:48:04;;;;;;;1.65;0.70;;;13.90;94.30;;;;;;5104909;28;20128;-79
2023/03/22 16:50:35;;;;;;;1.55;0.60;;;13.80;94.30;;;;;;5108456;28;20074;-81
2023/03/22 16:53:01;;;;;;;1.27;0.80;;;13.80;94.50;;;;;;5112273;28;20066;-80
2023/03/22 16:55:29;;;;;;;1.02;0.60;;;13.80;94.30;;;;;;5107452;28;20043;-80
2023/03/22 17:27:20;;;;;;;;;;;12.60;95.30;;;;;;5123126;27;20410;-78
2023/03/22 17:29:46;;;;;;;;;;;12.60;96.80;;;;;;5118177;28;19931;-79
2023/03/22 17:32:14;;;;;;;2.23;0.87;;;12.50;97.60;;;;;;5119886;28;19920;-79
2023/03/22 17:34:42;;;;;;;3.53;0.88;;;12.50;98.00;;;;;;5109535;28;20075;-78
2023/03/22 17:37:08;;;;;;;2.33;1.30;;;12.40;98.30;;;;;;5108556;28;20036;-79
2023/03/22 17:39:35;;;;;;;1.85;1.45;;;12.40;98.40;;;;;;5111771;28;20058;-79
2023/03/22 17:42:03;;;;;;;2.67;1.83;;;12.30;98.50;;;;;;5115366;28;20598;-79
2023/03/22 17:44:30;;;;;;;6.35;2.38;;;12.30;99.00;;;;;;5115354;22;20131;-77
2023/03/22 17:46:56;;;;;;;2.15;1.60;;;12.20;99.00;;;;;;5091216;28;20152;-77
2023/03/22 17:49:21;;;;;;;4.10;2.25;;;12.20;99.00;;;;;;5085108;28;20036;-76
2023/03/22 17:51:47;;;;;;;3.60;1.90;;;12.20;98.80;;;;;;5086156;28;20027;-76
2023/03/22 17:54:13;;;;;;;4.10;2.10;;;12.10;98.50;;;;;;5083722;28;20514;-76
2023/03/22 17:56:39;;;;;;;2.97;1.85;;;12.10;98.40;;;;;;5100788;28;20051;-76
2023/03/22 17:59:05;;;;;;;4.60;2.25;;;12.10;98.40;;;;;;5102823;28;20036;-76
2023/03/22 18:01:31;;;;;;;3.80;1.90;;;12.00;98.40;;;;;;5100966;28;20056;-77
2023/03/22 18:03:57;;;;;;;3.85;2.33;;;12.00;98.60;;;;;;5096590;28;20051;-76
2023/03/22 18:06:22;;;;;;;4.35;2.22;;;12.00;98.70;;;;;;5097271;28;20031;-77
2023/03/22 18:08:48;;;;;;;4.13;2.55;;;12.00;99.00;;;;;;5099096;28;21146;-76
2023/03/22 18:11:14;;;;;;;6.18;3.13;;;12.00;99.30;;;;;;5106411;28;20103;-76
2023/03/22 18:13:41;;;;;;;6.75;3.60;;;12.00;99.40;;;;;;5095341;28;20548;-76
2023/03/22 18:16:09;;;;;;;5.40;3.83;;;11.90;99.80;;;;;;5079666;28;20028;-76
2023/03/22 18:18:34;;;;;;;9.52;4.00;;;11.90;99.60;;;;;;5096255;28;20556;-77
2023/03/22 18:21:05;;;;;;;5.80;3.95;;;11.80;99.70;;;;;;5098414;28;20034;-77
2023/03/22 18:23:31;;;;;;;6.93;3.72;;;11.70;99.90;;;;;;5089884;28;20028;-76
2023/03/22 18:25:59;;;;;;;9.40;4.18;;;11.70;99.90;;;;;;5075414;28;20397;-76
2023/03/22 18:28:25;;;;;;;6.20;4.20;;;11.60;99.90;;;;;;5098319;28;20435;-76
2023/03/22 18:30:51;;;;;;;6.97;4.13;;;11.60;99.90;;;;;;5100667;28;20060;-76
2023/03/22 18:33:17;;;;;;;7.30;4.45;;;11.60;99.90;;;;;;5101437;28;20097;-76
2023/03/22 18:35:43;;;;;;;6.35;4.80;;;11.50;99.90;;;;;;5097177;28;20019;-76
2023/03/22 18:38:08;;;;;;;7.18;4.30;;;11.40;99.90;;;;;;5087625;28;20032;-76
2023/03/22 18:40:35;;;;;;;12.13;7.93;;;11.40;99.90;;;;;;5083508;28;20042;-77
2023/03/22 18:43:01;;;;;;;11.50;5.97;;;11.30;99.90;;;;;;5087305;28;20383;-77
2023/03/22 18:45:27;;;;;;;9.25;5.63;;;11.30;99.90;;;;;;5086082;28;20028;-77
2023/03/22 18:47:53;;;;;;;8.77;5.22;;;11.30;99.90;;;;;;5082606;28;20099;-76
2023/03/22 18:50:18;;;;;;;13.15;5.10;;;11.30;99.90;;;;;;5084417;28;20032;-76
2023/03/22 18:52:44;;;;;;;5.38;3.03;;;11.20;99.90;;;;;;5083176;28;20096;-76
2023/03/22 18:55:11;;;;;;;9.20;3.58;;;11.20;99.90;;;;;;5080631;28;20050;-77
2023/03/22 18:57:37;;;;;;;5.57;3.63;;;11.30;99.90;;;;;;5081853;28;20032;-76
2023/03/22 19:00:06;;;;;;;5.35;3.70;;;11.30;99.90;;;;;;5081793;28;20032;-76
2023/03/22 19:02:32;;;;;;;6.38;4.10;;;11.30;99.90;;;;;;5081637;28;20107;-77
2023/03/22 19:04:59;;;;;;;4.38;3.10;;;11.20;99.90;;;;;;5084599;28;20028;-77
2023/03/22 19:07:26;;;;;;;3.85;3.10;;;11.10;99.90;;;;;;5053402;28;20032;-77
2023/03/22 19:09:53;;;;;;;5.35;2.90;;;11.10;99.90;;;;;;5084287;28;20040;-76
2023/03/22 19:12:19;;;;;;;3.92;2.58;;;11.10;99.90;;;;;;5090850;28;20119;-77
2023/03/22 19:14:45;;;;;;;4.55;2.60;;;11.00;99.90;;;;;;5084696;28;20032;-76
2023/03/22 19:17:11;;;;;;;2.60;2.40;;;11.00;99.90;;;;;;5084442;28;20043;-76
2023/03/22 19:19:37;;;;;;;2.83;2.10;;;11.00;99.90;;;;;;5082673;28;20052;-76
2023/03/22 19:22:03;;;;;;;2.10;1.83;;;10.90;99.90;;;;;;5062722;28;21628;-76
2023/03/22 19:24:29;;;;;;;3.28;2.05;;;10.90;99.90;;;;;;5100121;28;20031;-76
2023/03/22 19:26:58;;;;;;;5.45;2.20;;;10.90;99.90;;;;;;5084583;28;20217;-76
2023/03/22 19:29:27;;;;;;;4.45;2.10;;;10.80;99.90;;;;;;5082413;28;20032;-76
2023/03/22 19:31:54;;;;;;;6.28;2.40;;;10.80;99.90;;;;;;5086980;28;20429;-76
2023/03/22 19:34:21;;;;;;;3.55;2.00;;;10.80;99.90;;;;;;5086752;28;20031;-77
2023/03/22 19:36:47;;;;;;;3.60;2.28;;;10.80;99.90;;;;;;5097547;28;20032;-76
2023/03/22 19:39:14;;;;;;;3.25;2.13;;;10.80;99.90;;;;;;5088538;28;20035;-77
2023/03/22 19:41:40;;;;;;;2.08;1.38;;;10.80;99.90;;;;;;5085399;28;20032;-77
2023/03/22 19:44:05;;;;;;;3.63;1.80;;;10.80;99.90;;;;;;5088217;28;20032;-77
2023/03/22 19:46:31;;;;;;;4.18;1.70;;;10.80;99.90;;;;;;5088440;28;20032;-77
2023/03/22 19:48:58;;;;;;;2.13;1.42;;;10.90;99.90;;;;;;5070420;28;20024;-77
2023/03/22 19:51:23;;;;;;;1.60;1.40;;;10.90;99.90;;;;;;5084168;28;20027;-76
2023/03/22 19:53:49;;;;;;;4.85;1.92;;;11.00;99.90;;;;;;5084076;28;20020;-76
2023/03/22 19:56:15;;;;;;;3.25;1.88;;;11.10;99.90;;;;;;5086896;28;20559;-77
2023/03/22 19:58:40;;;;;;;4.30;1.90;;;11.00;99.90;;;;;;5080366;28;20073;-79
2023/03/22 20:01:08;;;;;;;3.25;2.20;;;11.00;99.90;;;;;;5084419;28;20055;-79
2023/03/22 20:03:38;;;;;;;2.67;1.63;;;11.00;99.90;;;;;;5079104;28;20461;-80
2023/03/22 20:06:07;;;;;;;3.63;1.85;;;11.00;99.90;;;;;;5085535;28;20028;-76
2023/03/22 20:08:35;;;;;;;2.95;1.75;;;11.00;99.90;;;;;;5078883;28;20024;-76
2023/03/22 20:11:01;;;;;;;2.88;1.52;;;11.10;99.90;;;;;;5083735;28;20024;-78
2023/03/22 20:13:27;;;;;;;1.80;1.63;;;11.00;99.90;;;;;;5083812;28;20112;-77
2023/03/22 20:15:53;;;;;;;4.50;1.50;;;11.00;99.90;;;;;;5084673;28;20103;-77
2023/03/22 20:18:19;;;;;;;4.03;1.60;;;11.10;99.90;;;;;;5082464;28;20024;-77
2023/03/22 20:20:47;;;;;;;4.03;1.50;;;11.10;99.90;;;;;;5075454;28;20453;-77
2023/03/22 20:23:13;;;;;;;1.70;1.38;;;11.20;99.90;;;;;;5071974;28;20060;-77
2023/03/22 20:25:38;;;;;;;3.53;1.95;;;11.30;99.90;;;;;;5078302;28;20067;-76
2023/03/22 20:28:05;;;;;;;1.95;1.77;;;11.30;99.90;;;;;;5079600;28;20024;-77
2023/03/22 20:30:31;;;;;;;7.05;2.10;;;11.30;99.90;;;;;;5075498;28;20032;-77
2023/03/22 20:32:57;;;;;;;4.32;1.67;;;11.30;99.90;;;;;;5063620;28;20027;-77
2023/03/22 20:35:23;;;;;;;2.88;2.00;;;11.40;99.90;;;;;;5083138;28;20032;-77
2023/03/22 20:37:48;;;;;;;3.15;1.98;;;11.40;99.90;;;;;;5078015;28;20024;-77
2023/03/22 20:40:14;;;;;;;2.70;2.42;;;11.40;99.90;;;;;;5065896;28;20253;-76
2023/03/22 20:42:40;;;;;;;3.92;2.40;;;11.40;99.90;;;;;;5072322;28;20024;-76
2023/03/22 20:45:07;;;;;;;2.88;2.50;;;11.40;99.90;;;;;;5062450;28;20116;-76
2023/03/22 20:47:32;;;;;;;6.05;2.88;;;11.30;99.90;;;;;;5057703;28;20028;-76
2023/03/22 20:49:58;;;;;;;4.80;3.13;;;11.30;99.90;;;;;;5083114;28;20063;-76
2023/03/22 20:52:25;;;;;;;6.72;2.55;;;11.30;99.90;;;;;;5080814;28;20440;-77
2023/03/22 20:54:50;;;;;;;6.85;2.40;;;11.30;99.90;;;;;;5084432;28;20117;-79
2023/03/22 20:57:17;;;;;;;3.28;2.40;;;11.30;99.90;;;;;;5077220;28;20546;-77
2023/03/22 20:59:43;;;;;;;3.80;2.50;;;11.20;99.90;;;;;;5056696;28;20416;-77
2023/03/22 21:02:12;;;;;;;3.40;2.45;;;11.10;99.90;;;;;;5075400;28;20033;-77
2023/03/22 21:04:38;;;;;;;3.88;2.60;;;11.10;99.90;;;;;;5079095;28;20435;-77
2023/03/22 21:07:03;;;;;;;3.53;2.58;;;11.10;99.90;;;;;;5077502;28;20031;-77
2023/03/22 21:09:29;;;;;;;3.85;2.60;;;11.00;99.90;;;;;;5063630;28;20032;-77
2023/03/22 21:11:55;;;;;;;4.95;2.80;;;11.00;99.90;;;;;;5081167;28;20028;-76
2023/03/22 21:14:22;;;;;;;3.47;2.35;;;11.00;99.90;;;;;;5082839;28;20024;-76
2023/03/22 21:16:48;;;;;;;15.50;8.88;;;10.90;99.90;;;;;;5090749;28;20036;-77
2023/03/22 21:19:14;;;;;;;9.90;6.25;;;10.90;99.90;;;;;;5074375;28;20042;-77
2023/03/22 21:21:41;;;;;;;6.35;4.22;;;10.90;99.90;;;;;;5078202;28;20028;-77
2023/03/22 21:24:08;;;;;;;4.38;3.35;;;10.90;99.90;;;;;;5076372;28;20634;-76
2023/03/22 21:26:34;;;;;;;5.32;2.55;;;10.90;99.90;;;;;;5079531;28;20054;-76
2023/03/22 21:28:59;;;;;;;5.63;2.97;;;11.00;99.90;;;;;;5077479;28;20036;-76
2023/03/22 21:31:26;;;;;;;2.75;2.55;;;11.00;99.90;;;;;;5076951;28;20040;-76
2023/03/22 21:33:52;;;;;;;3.13;2.70;;;10.90;99.90;;;;;;5080105;28;20411;-76
2023/03/22 21:36:19;;;;;;;4.03;2.83;;;10.80;99.90;;;;;;5076751;28;20063;-76
2023/03/22 21:38:52;;;;;;;4.95;2.97;;;10.80;99.90;;;;;;5066922;28;20608;-76
2023/03/22 21:41:19;;;;;;;4.55;3.17;;;10.80;99.90;;;;;;5078964;28;20029;-76
2023/03/22 21:43:52;;;;;;;4.60;2.85;;;10.70;99.90;;;;;;5071664;28;20093;-76
2023/03/22 21:46:20;;;;;;;5.22;3.30;;;10.80;99.90;;;;;;5083086;28;20114;-76
2023/03/22 21:48:47;;;;;;;4.72;3.17;;;10.80;99.90;;;;;;5081545;28;20024;-76
2023/03/22 21:51:14;;;;;;;4.78;3.20;;;10.80;99.90;;;;;;5075484;28;20024;-76
2023/03/22 21:53:41;;;;;;;5.63;3.45;;;10.80;99.90;;;;;;5069894;28;20046;-76
2023/03/22 21:56:08;;;;;;;4.88;3.50;;;10.70;99.90;;;;;;5079340;28;20028;-76
2023/03/22 21:58:34;;;;;;;6.05;3.22;;;10.70;99.90;;;;;;5081991;28;20032;-76
2023/03/22 22:01:00;;;;;;;4.95;3.35;;;10.70;99.90;;;;;;5062520;28;20027;-76
2023/03/22 22:03:27;;;;;;;7.25;3.92;;;10.70;99.90;;;;;;5077086;28;20032;-76
2023/03/22 22:05:56;;;;;;;5.55;3.30;;;10.70;99.90;;;;;;5061375;28;20689;-77
2023/03/22 22:08:23;;;;;;;5.50;3.25;;;10.70;99.90;;;;;;5074171;28;20159;-76
2023/03/22 22:10:57;;;;;;;3.90;3.40;;;10.70;99.90;;;;;;5077200;28;20078;-77
2023/03/22 22:13:24;;;;;;;4.40;3.10;;;10.70;99.90;;;;;;5079383;28;20140;-76
2023/03/22 22:15:58;;;;;;;5.57;3.58;;;10.60;99.90;;;;;;5084194;28;20024;-77
2023/03/22 22:18:25;;;;;;;3.90;3.17;;;10.60;99.90;;;;;;5077646;28;20050;-76
2023/03/22 22:20:59;;;;;;;4.75;3.22;;;10.60;99.90;;;;;;5082982;28;20027;-77
2023/03/22 22:23:38;;;;;;;5.18;3.03;;;10.60;99.90;;;;;;5073400;28;20032;-77
2023/03/22 22:26:07;;;;;;;4.90;2.92;;;10.60;99.90;;;;;;5080826;28;20032;-76
2023/03/22 22:28:35;;;;;;;6.68;3.25;;;10.60;99.90;;;;;;5088170;28;20024;-76
2023/03/22 22:31:10;;;;;;;3.33;2.80;;;10.60;99.90;;;;;;5080258;28;20030;-76
2023/03/22 22:33:38;;;;;;;4.32;3.33;;;10.60;99.90;;;;;;5084711;28;20027;-76
2023/03/22 22:36:08;;;;;;;3.20;2.80;;;10.60;99.90;;;;;;5086936;28;20032;-76
2023/03/22 22:38:39;;;;;;;4.50;3.28;;;10.50;99.90;;;;;;5083934;28;20036;-77
2023/03/22 22:41:07;;;;;;;3.90;2.67;;;10.60;99.90;;;;;;5060545;28;20032;-76
2023/03/22 22:43:34;;;;;;;3.22;2.47;;;10.60;99.90;;;;;;5077016;28;20508;-76
2023/03/22 22:46:00;;;;;;;4.35;3.50;;;10.60;99.90;;;;;;5084609;28;20024;-76
2023/03/22 22:48:25;;;;;;;7.47;3.05;;;10.70;99.90;;;;;;5074839;28;20093;-77
2023/03/22 22:51:02;;;;;;;7.63;3.45;;;10.70;99.90;;;;;;5073604;28;20039;-76
2023/03/22 22:53:28;;;;;;;4.30;3.22;;;10.60;99.90;;;;;;5084501;28;20032;-76
2023/03/22 22:55:54;;;;;;;4.18;3.05;;;10.50;99.90;;;;;;5087461;28;20119;-76
2023/03/22 22:58:19;;;;;;;3.80;3.00;;;10.50;99.90;;;;;;5079514;28;20028;-76
2023/03/22 23:00:46;;;;;;;4.90;3.33;;;10.40;99.90;;;;;;5084952;28;20040;-77
2023/03/22 23:03:12;;;;;;;4.93;3.60;;;10.50;99.90;;;;;;5084691;28;21337;-77
2023/03/22 23:05:40;;;;;;;5.45;3.70;;;10.50;99.90;;;;;;5065804;28;20056;-77
2023/03/22 23:08:06;;;;;;;4.90;3.13;;;10.60;99.90;;;;;;5085224;28;20109;-77
2023/03/22 23:10:35;;;;;;;4.30;2.97;;;10.50;99.90;;;;;;5086035;28;20028;-77
2023/03/22 23:13:05;;;;;;;7.78;3.20;;;10.40;99.90;;;;;;5078662;28;20032;-77
2023/03/22 23:15:34;;;;;;;3.80;3.20;;;10.40;99.90;;;;;;5082613;28;20020;-77
2023/03/22 23:18:08;;;;;;;6.80;3.47;;;10.50;99.90;;;;;;5087966;28;20550;-77
2023/03/22 23:20:38;;;;;;;5.13;3.47;;;10.50;99.90;;;;;;5080901;28;20067;-77
2023/03/22 23:23:06;;;;;;;4.85;2.92;;;10.40;99.90;;;;;;5078277;28;20052;-77
2023/03/22 23:25:35;;;;;;;6.60;3.88;;;10.40;99.90;;;;;;5082318;28;20085;-77
2023/03/22 23:28:01;;;;;;;5.85;3.60;;;10.40;99.90;;;;;;5077888;28;20070;-76
2023/03/22 23:30:27;;;;;;;5.53;3.58;;;10.50;99.90;;;;;;5084906;28;20029;-76
2023/03/22 23:32:59;;;;;;;5.50;3.33;;;10.40;99.90;;;;;;5083837;28;20448;-77
2023/03/22 23:35:26;;;;;;;5.15;3.20;;;10.40;99.90;;;;;;5084301;28;20029;-77